Details From KRIC - Richmond Intl
To KLYH - LYNCHBURG RGNL PRESTON GLENN FLD
Flight Number -
Tags decoded
Created
Modified
Stats Distance 90 nm / 167 km
Max Altitude 0 ft / 0 m
Waypoints 2
Social Downloads 0
Likes 0
Share VATSIM

Download

Looking for another format? Having issues loading an existing format? Contact us
Advertisement - Login to hide

Notes

Requested: KRIC KLYH

Route

KRIC KLYH

ID Type Via Altitude Latitude Longitude Leg Dist Tot Dist Heading (true) Name
O KRIC APT - 0 ft / 0 m 37.50473˚ -77.32011˚ - 0 nm - Richmond Intl
O KLYH APT - 0 ft / 0 m 37.32733˚ -79.20014˚ 90 nm 90 nm 264° / 263° LYNCHBURG RGNL PRESTON GLENN FLD

Altitude Profile

Advertisement - Login to hide

KRIC

Details ICAO KRIC (RIC)
Name Richmond Intl
Region United States
Timezone America/New_York (UTC-4.0)
Stats Elevation 167 ft / 51 m (AMSL)
Location 37.504728° -77.320112°
Runways 3
Magnetic Variation 10.390° W

METAR

KRIC 271554Z 21007KT 10SM BKN024 28/22 A2997 RMK AO2 SLP151 T02780217

Decode

TAF

TAF AMD KRIC 271445Z 2715/2812 22007KT P6SM OVC015 FM271530 22009KT P6SM SCT015 BKN035 FM271700 22008KT P6SM VCSH BKN045 FM280000 21006KT P6SM BKN070

Decode

Departure Runways

ID Width Length Bearing (true) Bearing (mag) Surface Threshold Offset Overrun Length
02 151 ft / 46 m 6,619 ft / 2,018 m 13.39° 23.78° Asphalt 0 ft / 0 m 125 ft / 38 m
07 98 ft / 30 m 5,312 ft / 1,619 m 57.36° 67.75° Asphalt 0 ft / 0 m 200 ft / 61 m
16 151 ft / 46 m 9,027 ft / 2,751 m 147.64° 158.03° Asphalt 0 ft / 0 m 1,001 ft / 305 m
20 151 ft / 46 m 6,619 ft / 2,018 m 193.39° 203.78° Asphalt 0 ft / 0 m 276 ft / 84 m
25 98 ft / 30 m 5,312 ft / 1,619 m 237.36° 247.75° Asphalt 0 ft / 0 m 0 ft / 0 m
34 151 ft / 46 m 9,027 ft / 2,751 m 327.66° 338.05° Asphalt 0 ft / 0 m 1,001 ft / 305 m

KLYH

Details ICAO KLYH (LYH)
Name LYNCHBURG RGNL PRESTON GLENN FLD
Region United States
Timezone America/New_York (UTC-4.0)
Stats Elevation 938 ft / 286 m (AMSL)
Location 37.327327° -79.200143°
Runways 2
Magnetic Variation 9.208° W

METAR

KLYH 271601Z 23005KT 10SM BKN021 27/21 A2999

Decode

TAF

KLYH 271600Z 2716/2812 20005KT P6SM VCSH BKN035 FM272100 20007KT P6SM VCTS BKN040CB OVC100 FM280000 16004KT P6SM SCT045 BKN100 FM280400 21003KT 5SM BR SCT003

Decode

Destination Runways

ID Width Length Bearing (true) Bearing (mag) Surface Threshold Offset Overrun Length
04 151 ft / 46 m 5,803 ft / 1,769 m 27.78° 36.99° Asphalt 171 ft / 52 m 0 ft / 0 m
17 135 ft / 41 m 3,636 ft / 1,108 m 161.06° 170.27° Asphalt 0 ft / 0 m 164 ft / 50 m
22 151 ft / 46 m 5,803 ft / 1,769 m 207.79° 217.00° Asphalt 177 ft / 54 m 0 ft / 0 m
35 135 ft / 41 m 3,636 ft / 1,108 m 341.06° 350.27° Asphalt 0 ft / 0 m 197 ft / 60 m

Approach Navaids

Runway Type Ident Frequency Range Bearing (true) Bearing (mag) Slope Elevation
04 Localiser ILYH 110.10 MHz 18 nm / 33 km 27.72° 36.92° - 938 ft / 286 m (AMSL)
04 Glidescope ILYH 110.10 MHz 10 nm / 19 km 27.79° 36.99° 3.00° 901 ft / 275 m (AMSL)

Popular Alternatives